Time;durP1;ratioP1;P1;durP2;ratioP2;P2;SDS_P1;SDS_P2;PMS_P1;PMS_P2;Temp;Humidity;BMP_temperature;BMP_pressure;BME280_temperature;BME280_humidity;BME280_pressure;Samples;Min_cycle;Max_cycle;Signal;HPM_P1;HPM_P2
2023/09/23 00:00:12;;;;;;;3.33;1.60;;;13.20;99.90;;;;;;5061933;28;20425;-65
2023/09/23 00:02:39;;;;;;;3.88;1.52;;;13.20;99.90;;;;;;5040005;28;20102;-65
2023/09/23 00:05:09;;;;;;;5.70;1.65;;;13.20;99.90;;;;;;5063365;28;20881;-65
2023/09/23 00:07:35;;;;;;;6.05;1.60;;;13.10;99.90;;;;;;5036941;28;20068;-65
2023/09/23 00:10:08;;;;;;;4.63;1.30;;;13.10;99.90;;;;;;5063118;28;20056;-65
2023/09/23 00:12:35;;;;;;;3.85;1.38;;;13.10;99.90;;;;;;5053236;28;20055;-70
2023/09/23 00:15:01;;;;;;;4.30;1.50;;;13.10;99.90;;;;;;5098765;28;20048;-70
2023/09/23 00:17:27;;;;;;;3.47;1.40;;;13.10;99.90;;;;;;5038036;28;20045;-69
2023/09/23 00:19:53;;;;;;;4.93;1.35;;;13.10;99.90;;;;;;5043987;28;20064;-68
2023/09/23 00:22:18;;;;;;;3.20;1.00;;;13.00;99.90;;;;;;5046463;28;20056;-69
2023/09/23 00:24:45;;;;;;;5.97;1.30;;;13.00;99.90;;;;;;5056815;28;20052;-69
2023/09/23 00:27:10;;;;;;;3.95;1.40;;;13.00;99.90;;;;;;5047374;28;20040;-69
2023/09/23 00:29:36;;;;;;;2.42;1.17;;;13.00;99.90;;;;;;5054598;28;20528;-69
2023/09/23 00:32:02;;;;;;;5.55;1.00;;;13.00;99.90;;;;;;5064695;28;20166;-69
2023/09/23 00:34:29;;;;;;;3.58;1.05;;;12.90;99.90;;;;;;5035832;28;20040;-68
2023/09/23 00:36:54;;;;;;;3.30;1.00;;;12.90;99.90;;;;;;5064474;28;20057;-68
2023/09/23 00:39:20;;;;;;;3.63;1.20;;;12.90;99.90;;;;;;5056143;28;20504;-68
2023/09/23 00:41:46;;;;;;;4.30;1.08;;;12.80;99.90;;;;;;5043615;28;20055;-68
2023/09/23 00:44:12;;;;;;;2.85;0.80;;;12.80;99.90;;;;;;5043975;28;20055;-69
2023/09/23 00:46:40;;;;;;;1.52;0.70;;;12.80;99.90;;;;;;5040238;28;20473;-69
2023/09/23 00:49:07;;;;;;;3.70;1.00;;;12.80;99.90;;;;;;5045295;28;20048;-69
2023/09/23 00:51:33;;;;;;;4.25;1.42;;;12.80;99.90;;;;;;5037810;28;20109;-68
2023/09/23 00:54:01;;;;;;;4.85;1.20;;;12.70;99.90;;;;;;5063664;28;20587;-69
2023/09/23 00:56:29;;;;;;;5.18;1.50;;;12.70;99.90;;;;;;5052803;28;20048;-68
2023/09/23 00:58:54;;;;;;;2.83;1.08;;;12.70;99.90;;;;;;5047222;28;20059;-68
2023/09/23 01:01:21;;;;;;;3.20;1.23;;;12.70;99.90;;;;;;5035358;28;20057;-68
2023/09/23 01:03:47;;;;;;;3.13;1.08;;;12.70;99.90;;;;;;5061598;28;20063;-68
2023/09/23 01:06:16;;;;;;;4.38;1.40;;;12.70;99.90;;;;;;5058543;28;20170;-68
2023/09/23 01:08:50;;;;;;;2.70;1.25;;;12.70;99.90;;;;;;5084655;28;20052;-68
2023/09/23 01:11:17;;;;;;;3.22;1.10;;;12.70;99.90;;;;;;5061937;28;20401;-69
2023/09/23 01:13:45;;;;;;;4.15;1.40;;;12.70;99.90;;;;;;5041270;28;20037;-68
2023/09/23 01:16:14;;;;;;;3.70;1.13;;;12.70;99.90;;;;;;5079147;28;20054;-69
2023/09/23 01:18:44;;;;;;;3.65;1.30;;;12.70;99.90;;;;;;5038020;28;20056;-69
2023/09/23 01:21:10;;;;;;;3.47;1.20;;;12.70;99.90;;;;;;5067655;28;20052;-69
2023/09/23 01:23:37;;;;;;;4.20;1.50;;;12.70;99.90;;;;;;5056997;28;20040;-68
2023/09/23 01:26:04;;;;;;;4.80;1.40;;;12.70;99.90;;;;;;5067227;28;20102;-69
2023/09/23 01:28:33;;;;;;;2.35;1.15;;;12.60;99.90;;;;;;5056236;28;20703;-68
2023/09/23 01:31:02;;;;;;;3.83;1.30;;;12.60;99.90;;;;;;5047210;28;20063;-68
2023/09/23 01:33:29;;;;;;;3.17;1.17;;;12.70;99.90;;;;;;5045954;28;20045;-69
2023/09/23 01:35:57;;;;;;;3.30;1.48;;;12.60;99.90;;;;;;5058369;28;20135;-69
2023/09/23 01:38:24;;;;;;;4.30;1.15;;;12.60;99.90;;;;;;5072529;28;20053;-69
2023/09/23 01:40:51;;;;;;;3.25;1.20;;;12.60;99.90;;;;;;5080839;28;20083;-68
2023/09/23 01:43:17;;;;;;;2.42;0.90;;;12.60;99.90;;;;;;5055069;28;20059;-68
2023/09/23 01:45:44;;;;;;;3.15;1.20;;;12.60;99.90;;;;;;5042485;28;20044;-69
2023/09/23 01:48:10;;;;;;;3.70;1.00;;;12.60;99.90;;;;;;5063728;28;20657;-68
2023/09/23 01:50:36;;;;;;;2.58;1.00;;;12.60;99.90;;;;;;5040485;28;20045;-68
2023/09/23 01:53:01;;;;;;;2.58;1.02;;;12.60;99.90;;;;;;5063784;28;20074;-70
2023/09/23 01:55:28;;;;;;;2.67;1.00;;;12.60;99.90;;;;;;5041122;28;20493;-69
2023/09/23 01:57:54;;;;;;;3.53;1.10;;;12.60;99.90;;;;;;5038820;28;20053;-69
2023/09/23 02:00:26;;;;;;;4.05;1.10;;;12.60;99.90;;;;;;5061697;28;20083;-69
2023/09/23 02:02:56;;;;;;;3.28;1.30;;;12.60;99.90;;;;;;5057185;28;20060;-69
2023/09/23 02:05:29;;;;;;;3.25;1.10;;;12.60;99.90;;;;;;5099418;28;20109;-69
2023/09/23 02:07:55;;;;;;;3.35;1.20;;;12.50;99.90;;;;;;5081270;28;20053;-69
2023/09/23 02:10:24;;;;;;;5.07;1.65;;;12.60;99.90;;;;;;5053147;28;20048;-69
2023/09/23 02:12:49;;;;;;;4.85;1.40;;;12.50;99.90;;;;;;5059643;28;20044;-69
2023/09/23 02:15:16;;;;;;;3.63;1.58;;;12.50;99.90;;;;;;5051980;28;20049;-69
2023/09/23 02:17:51;;;;;;;5.10;1.88;;;12.40;99.90;;;;;;5044436;28;20051;-69
2023/09/23 02:20:18;;;;;;;4.22;2.03;;;12.40;99.90;;;;;;5062213;28;20068;-69
2023/09/23 02:22:46;;;;;;;6.43;1.73;;;12.50;99.90;;;;;;5057717;28;20063;-69
2023/09/23 02:25:12;;;;;;;5.68;1.67;;;12.40;99.90;;;;;;5051553;28;20044;-69
2023/09/23 02:27:39;;;;;;;4.65;2.13;;;12.40;99.90;;;;;;5043099;28;20087;-69
2023/09/23 02:30:09;;;;;;;5.97;2.22;;;12.40;99.90;;;;;;5031897;28;20044;-69
2023/09/23 02:32:38;;;;;;;5.32;2.47;;;12.40;99.90;;;;;;5063140;28;20113;-69
2023/09/23 02:35:06;;;;;;;5.68;2.58;;;12.40;99.90;;;;;;5047900;28;20044;-69
2023/09/23 02:37:31;;;;;;;5.47;2.42;;;12.40;99.90;;;;;;5063197;28;20056;-68
2023/09/23 02:39:57;;;;;;;6.63;2.63;;;12.40;99.90;;;;;;5039783;28;20070;-65
2023/09/23 02:42:23;;;;;;;5.97;3.10;;;12.40;99.90;;;;;;5037008;28;20052;-65
2023/09/23 02:44:48;;;;;;;6.03;3.25;;;12.40;99.90;;;;;;5031307;28;20041;-64
2023/09/23 02:47:16;;;;;;;6.80;3.65;;;12.40;99.90;;;;;;5046104;28;20128;-64
2023/09/23 02:49:45;;;;;;;6.70;4.07;;;12.30;99.90;;;;;;5048469;28;20125;-64
2023/09/23 02:52:11;;;;;;;11.88;3.42;;;12.30;99.90;;;;;;5051908;28;20139;-64
2023/09/23 02:54:36;;;;;;;7.32;4.00;;;12.30;99.90;;;;;;5047516;28;20066;-65
2023/09/23 02:57:02;;;;;;;7.20;4.22;;;12.30;99.90;;;;;;5029110;28;20119;-64
2023/09/23 02:59:31;;;;;;;7.85;4.50;;;12.30;99.90;;;;;;5054892;28;20517;-64
2023/09/23 03:01:58;;;;;;;7.60;4.72;;;12.30;99.90;;;;;;5053524;28;20058;-65
2023/09/23 03:04:24;;;;;;;8.18;4.63;;;12.30;99.90;;;;;;5056816;28;20116;-64
2023/09/23 03:06:56;;;;;;;7.95;5.10;;;12.30;99.90;;;;;;5048969;28;20052;-64
2023/09/23 03:09:26;;;;;;;9.15;4.78;;;12.20;99.90;;;;;;5047793;28;20084;-65
2023/09/23 03:11:56;;;;;;;8.68;5.55;;;12.30;99.90;;;;;;5055897;28;20147;-66
2023/09/23 03:14:25;;;;;;;7.30;4.95;;;12.20;99.90;;;;;;5052661;28;20036;-65
2023/09/23 03:16:53;;;;;;;8.73;5.63;;;12.20;99.90;;;;;;5055381;28;20045;-64
2023/09/23 03:19:25;;;;;;;10.77;5.97;;;12.20;99.90;;;;;;5061836;28;20525;-64
2023/09/23 03:21:55;;;;;;;9.20;5.72;;;12.20;99.90;;;;;;5046583;28;20646;-64
2023/09/23 03:24:22;;;;;;;8.25;5.75;;;12.20;99.90;;;;;;5056001;28;21028;-64
2023/09/23 03:26:50;;;;;;;7.97;5.72;;;12.20;99.90;;;;;;5038205;28;20060;-64
2023/09/23 03:29:18;;;;;;;9.45;5.97;;;12.10;99.90;;;;;;5048646;28;20160;-64
2023/09/23 03:31:44;;;;;;;11.43;6.90;;;12.10;99.90;;;;;;5037822;28;20051;-64
2023/09/23 03:34:13;;;;;;;10.32;6.20;;;12.10;99.90;;;;;;5030153;28;20044;-64
2023/09/23 03:36:39;;;;;;;10.85;6.70;;;12.10;99.90;;;;;;5061532;28;20048;-65
2023/09/23 03:39:05;;;;;;;9.35;6.28;;;12.30;99.90;;;;;;5062072;28;20055;-64
2023/09/23 03:41:33;;;;;;;9.27;6.53;;;12.30;99.90;;;;;;5037401;28;20052;-65
2023/09/23 03:43:59;;;;;;;11.20;6.32;;;12.00;99.90;;;;;;5042588;28;20044;-64
2023/09/23 03:46:25;;;;;;;10.13;6.30;;;12.00;99.90;;;;;;5051160;28;20044;-64
2023/09/23 03:48:50;;;;;;;11.25;6.55;;;12.00;99.90;;;;;;5038566;28;20154;-65
2023/09/23 03:51:17;;;;;;;10.60;6.95;;;12.00;99.90;;;;;;5049614;28;20044;-65
2023/09/23 03:53:49;;;;;;;10.63;6.32;;;12.00;99.90;;;;;;5061822;28;20101;-65
2023/09/23 03:56:15;;;;;;;10.50;6.40;;;11.90;99.90;;;;;;5064393;28;20182;-65
2023/09/23 03:58:43;;;;;;;9.65;7.07;;;12.00;99.90;;;;;;5021371;28;20053;-65
2023/09/23 04:01:13;;;;;;;11.85;6.80;;;11.90;99.90;;;;;;5043415;28;20722;-64
2023/09/23 04:03:43;;;;;;;9.38;6.85;;;11.90;99.90;;;;;;5027871;28;20053;-64
2023/09/23 04:06:08;;;;;;;10.23;6.72;;;11.90;99.90;;;;;;5055750;28;20162;-64
2023/09/23 04:08:34;;;;;;;9.38;6.38;;;11.80;99.90;;;;;;5036048;28;20087;-64
2023/09/23 04:11:10;;;;;;;12.32;7.32;;;11.80;99.90;;;;;;5051593;28;20084;-64
2023/09/23 04:13:38;;;;;;;11.32;6.72;;;11.90;99.90;;;;;;5033744;28;20060;-64
2023/09/23 04:16:05;;;;;;;9.15;6.85;;;11.80;99.90;;;;;;5050947;28;20402;-64
2023/09/23 04:18:31;;;;;;;10.50;6.68;;;11.80;99.90;;;;;;5049634;28;20067;-64
2023/09/23 04:20:58;;;;;;;9.90;6.97;;;11.70;99.90;;;;;;5052028;28;20150;-64
2023/09/23 04:23:23;;;;;;;8.85;6.78;;;11.70;99.90;;;;;;5043418;28;20052;-64
2023/09/23 04:25:50;;;;;;;9.27;6.93;;;11.60;99.90;;;;;;5053372;28;20051;-64
2023/09/23 04:28:16;;;;;;;10.15;6.75;;;11.70;99.90;;;;;;5058929;28;20068;-64
2023/09/23 04:30:42;;;;;;;11.27;6.60;;;11.70;99.90;;;;;;5037277;28;20060;-65
2023/09/23 04:33:08;;;;;;;13.68;6.93;;;11.70;99.90;;;;;;5058451;28;20048;-64
2023/09/23 04:35:37;;;;;;;9.75;6.90;;;11.70;99.90;;;;;;5034052;28;20419;-64
2023/09/23 04:38:03;;;;;;;10.40;6.97;;;11.70;99.90;;;;;;5047508;28;20146;-64
2023/09/23 04:40:29;;;;;;;11.73;7.63;;;11.60;99.90;;;;;;5054616;28;20125;-64
2023/09/23 04:42:54;;;;;;;10.25;6.68;;;11.60;99.90;;;;;;5037973;28;20056;-65
2023/09/23 04:45:20;;;;;;;11.73;6.82;;;11.60;99.90;;;;;;5036068;28;20048;-64
2023/09/23 04:47:50;;;;;;;10.50;6.72;;;11.60;99.90;;;;;;5036840;28;20041;-64
2023/09/23 04:50:23;;;;;;;10.80;6.85;;;11.60;99.90;;;;;;5049273;28;20065;-64
2023/09/23 04:52:50;;;;;;;10.25;6.68;;;11.60;99.90;;;;;;5055829;28;20590;-64
2023/09/23 04:55:16;;;;;;;9.63;6.43;;;11.60;99.90;;;;;;5050602;28;20075;-65
2023/09/23 04:57:42;;;;;;;10.10;6.80;;;11.60;99.90;;;;;;5053131;28;20059;-64
2023/09/23 05:00:15;;;;;;;9.70;6.50;;;11.50;99.90;;;;;;5067874;28;20075;-65
2023/09/23 05:02:41;;;;;;;11.82;6.78;;;11.50;99.90;;;;;;5053917;28;20087;-64
2023/09/23 05:05:09;;;;;;;11.43;6.90;;;11.50;99.90;;;;;;5060886;28;20055;-64
2023/09/23 05:07:37;;;;;;;11.60;6.97;;;11.50;99.90;;;;;;5056258;28;20127;-64
2023/09/23 05:10:07;;;;;;;10.27;7.00;;;11.50;99.90;;;;;;5040955;28;20056;-65
2023/09/23 05:12:33;;;;;;;9.63;6.65;;;11.50;99.90;;;;;;5039630;28;20079;-64
2023/09/23 05:15:00;;;;;;;12.40;6.53;;;11.50;99.90;;;;;;5050544;28;20477;-64
2023/09/23 05:17:28;;;;;;;9.70;7.43;;;11.50;99.90;;;;;;5063873;28;20048;-64
2023/09/23 05:19:54;;;;;;;9.95;6.40;;;11.50;99.90;;;;;;5041504;28;20056;-64
2023/09/23 05:22:20;;;;;;;10.18;6.70;;;11.50;99.90;;;;;;5036794;28;20490;-65
2023/09/23 05:24:50;;;;;;;10.82;6.82;;;11.50;99.90;;;;;;5043684;28;20048;-65
2023/09/23 05:27:16;;;;;;;9.40;6.50;;;11.70;99.90;;;;;;5058432;28;20139;-64
2023/09/23 05:29:44;;;;;;;10.00;7.05;;;11.40;99.90;;;;;;5046334;28;20045;-64
2023/09/23 05:32:11;;;;;;;13.07;6.93;;;11.40;99.90;;;;;;5057670;28;20059;-64
2023/09/23 05:34:41;;;;;;;8.38;5.93;;;11.40;99.90;;;;;;5057576;28;20052;-64
2023/09/23 05:37:12;;;;;;;10.77;6.85;;;11.40;99.90;;;;;;5062556;28;20546;-64
2023/09/23 05:39:44;;;;;;;10.63;6.55;;;11.40;99.90;;;;;;5063662;28;20079;-65
2023/09/23 05:42:10;;;;;;;9.70;7.13;;;11.40;99.90;;;;;;5040857;28;20482;-64
2023/09/23 05:44:36;;;;;;;8.48;5.93;;;11.60;99.90;;;;;;5041844;28;20057;-64
2023/09/23 05:47:02;;;;;;;9.60;6.80;;;11.30;99.90;;;;;;5081316;28;20047;-65
2023/09/23 05:49:28;;;;;;;9.25;6.28;;;11.50;99.90;;;;;;5064503;28;21767;-64
2023/09/23 05:51:54;;;;;;;10.68;6.50;;;11.30;99.90;;;;;;5051980;28;20053;-64
2023/09/23 05:54:20;;;;;;;10.57;7.35;;;11.30;99.90;;;;;;5082806;28;20045;-64
2023/09/23 05:56:46;;;;;;;10.70;7.20;;;11.30;99.90;;;;;;5039315;28;21050;-64
2023/09/23 05:59:15;;;;;;;10.30;7.32;;;11.30;99.90;;;;;;5041831;28;20109;-64
2023/09/23 06:01:42;;;;;;;13.05;7.65;;;11.30;99.90;;;;;;5055394;28;20052;-65
2023/09/23 06:04:10;;;;;;;10.27;7.10;;;11.50;99.90;;;;;;5056446;28;20131;-65
2023/09/23 06:06:39;;;;;;;14.75;8.48;;;11.30;99.90;;;;;;5057883;28;20044;-65
2023/09/23 06:09:06;;;;;;;13.02;7.57;;;11.30;99.90;;;;;;5085551;28;20573;-65
2023/09/23 06:11:33;;;;;;;10.70;7.43;;;11.30;99.90;;;;;;5048481;28;20104;-65
2023/09/23 06:13:58;;;;;;;16.25;9.15;;;11.60;99.90;;;;;;5034454;28;21504;-65
2023/09/23 06:16:24;;;;;;;13.45;8.93;;;11.40;99.90;;;;;;5057779;28;20041;-65
2023/09/23 06:18:50;;;;;;;11.90;7.47;;;11.40;99.90;;;;;;5055707;28;20054;-65
2023/09/23 06:21:15;;;;;;;15.68;8.50;;;11.50;99.90;;;;;;5054419;28;20041;-65
2023/09/23 06:23:41;;;;;;;12.13;8.25;;;11.50;99.90;;;;;;5041683;28;20040;-65
2023/09/23 06:26:10;;;;;;;13.00;8.88;;;11.60;99.90;;;;;;5034756;28;20052;-65
2023/09/23 06:28:36;;;;;;;14.30;8.93;;;11.60;99.90;;;;;;5053800;28;20076;-65
2023/09/23 06:31:08;;;;;;;13.73;9.23;;;11.60;99.90;;;;;;5038088;28;20505;-65
2023/09/23 06:33:34;;;;;;;13.52;9.13;;;11.70;99.90;;;;;;5028474;28;20140;-65
2023/09/23 06:36:04;;;;;;;16.23;9.73;;;11.70;99.90;;;;;;5054248;28;20036;-64
2023/09/23 06:38:31;;;;;;;13.23;9.38;;;11.70;99.90;;;;;;5035397;28;20044;-65
2023/09/23 06:40:57;;;;;;;16.65;10.02;;;11.70;99.90;;;;;;5054675;28;20052;-65
2023/09/23 06:43:23;;;;;;;13.55;9.57;;;11.70;99.90;;;;;;5053237;28;21181;-65
2023/09/23 06:45:58;;;;;;;16.42;10.48;;;11.70;99.90;;;;;;5036972;28;20045;-65
2023/09/23 06:48:25;;;;;;;14.73;10.10;;;11.80;99.90;;;;;;5059023;28;20493;-65
2023/09/23 06:51:01;;;;;;;13.13;9.60;;;11.80;99.90;;;;;;5036431;28;20048;-65
2023/09/23 06:53:29;;;;;;;17.25;10.40;;;11.80;99.90;;;;;;5034542;28;20036;-65
2023/09/23 06:55:54;;;;;;;15.18;10.77;;;11.80;99.90;;;;;;5033571;28;20139;-65
2023/09/23 06:58:20;;;;;;;19.33;11.23;;;11.80;99.90;;;;;;5059199;28;20049;-65
2023/09/23 07:00:46;;;;;;;15.57;11.60;;;11.90;99.90;;;;;;5052523;28;20056;-65
2023/09/23 07:03:12;;;;;;;16.58;10.95;;;11.90;99.90;;;;;;5054250;28;20048;-65
2023/09/23 07:05:39;;;;;;;16.80;10.68;;;11.90;99.90;;;;;;5058973;28;20070;-65
2023/09/23 07:08:05;;;;;;;15.52;10.63;;;11.90;99.90;;;;;;5054558;28;20059;-65
2023/09/23 07:10:38;;;;;;;15.98;11.20;;;12.00;99.90;;;;;;5056782;28;20040;-65
2023/09/23 07:13:05;;;;;;;20.15;11.77;;;12.00;99.90;;;;;;5052652;28;20614;-65
2023/09/23 07:15:41;;;;;;;18.63;11.75;;;12.00;99.90;;;;;;5049958;28;20049;-65
2023/09/23 07:18:07;;;;;;;15.30;11.05;;;12.10;99.90;;;;;;5057224;28;20036;-65
2023/09/23 07:20:33;;;;;;;18.13;11.32;;;12.20;99.90;;;;;;5055191;28;20543;-65
2023/09/23 07:22:59;;;;;;;14.13;10.15;;;12.30;99.90;;;;;;5036770;28;20048;-65
2023/09/23 07:25:26;;;;;;;17.02;9.98;;;12.40;99.90;;;;;;5053270;28;20080;-65
2023/09/23 07:27:53;;;;;;;14.15;9.70;;;12.60;99.90;;;;;;5053569;28;20132;-66
2023/09/23 07:30:19;;;;;;;15.70;9.95;;;12.70;99.90;;;;;;5050790;28;20052;-65
2023/09/23 07:32:45;;;;;;;12.73;8.65;;;12.80;99.90;;;;;;5048573;28;20055;-65
2023/09/23 07:35:10;;;;;;;12.80;9.15;;;12.90;99.90;;;;;;5067733;28;20045;-66
2023/09/23 07:37:36;;;;;;;13.27;9.60;;;13.10;99.90;;;;;;5051207;28;20121;-66
2023/09/23 07:40:02;;;;;;;14.90;8.70;;;13.10;99.90;;;;;;5055757;28;20074;-65
2023/09/23 07:42:29;;;;;;;11.02;7.97;;;13.20;99.90;;;;;;5079833;28;20848;-65
2023/09/23 07:44:55;;;;;;;13.13;8.63;;;13.20;99.90;;;;;;5034940;28;20409;-65
2023/09/23 07:47:20;;;;;;;12.27;8.02;;;13.20;99.90;;;;;;5052250;28;20049;-65
2023/09/23 07:49:46;;;;;;;14.10;8.38;;;13.30;99.90;;;;;;5053153;28;20044;-65
2023/09/23 07:52:15;;;;;;;13.35;7.70;;;13.30;99.90;;;;;;5050907;28;20710;-65
2023/09/23 07:54:40;;;;;;;14.68;7.55;;;13.30;99.90;;;;;;5055056;28;20117;-65
2023/09/23 07:57:06;;;;;;;12.75;7.75;;;13.40;99.90;;;;;;5076719;28;20056;-65
2023/09/23 07:59:32;;;;;;;16.23;7.78;;;13.40;99.90;;;;;;5052459;28;20049;-65
2023/09/23 08:01:57;;;;;;;13.23;7.82;;;13.40;99.90;;;;;;5036079;28;20052;-64
2023/09/23 08:04:23;;;;;;;10.65;7.32;;;13.40;99.90;;;;;;5051706;28;20060;-65
2023/09/23 08:06:49;;;;;;;13.98;7.68;;;13.50;99.90;;;;;;5037694;28;20123;-66
2023/09/23 08:09:15;;;;;;;13.50;7.93;;;13.50;99.90;;;;;;5053655;28;20141;-65
2023/09/23 08:11:40;;;;;;;10.90;7.45;;;13.50;99.90;;;;;;5047742;28;20040;-65
2023/09/23 08:14:06;;;;;;;11.32;7.43;;;13.50;99.90;;;;;;5054573;28;20044;-65
2023/09/23 08:16:32;;;;;;;13.55;7.65;;;13.60;99.90;;;;;;5028153;28;20801;-65
2023/09/23 08:18:58;;;;;;;10.73;7.35;;;13.60;99.90;;;;;;5028773;28;20741;-65
2023/09/23 08:21:23;;;;;;;11.07;7.75;;;13.70;99.90;;;;;;5028299;28;20063;-65
2023/09/23 08:23:49;;;;;;;14.73;9.13;;;13.70;99.90;;;;;;5041778;28;20047;-65
2023/09/23 08:26:15;;;;;;;14.13;8.45;;;13.80;99.90;;;;;;5040303;28;20056;-65
2023/09/23 08:28:42;;;;;;;15.23;8.35;;;13.80;99.90;;;;;;5042295;28;20051;-65
2023/09/23 08:31:08;;;;;;;14.43;8.75;;;14.00;99.90;;;;;;5034536;28;20177;-65
2023/09/23 08:33:35;;;;;;;12.25;7.68;;;14.10;99.90;;;;;;5036159;28;20131;-65
2023/09/23 08:36:01;;;;;;;12.10;8.02;;;14.20;99.90;;;;;;5054543;28;20068;-65
2023/09/23 08:38:27;;;;;;;11.70;7.75;;;14.30;99.90;;;;;;5054930;28;20048;-65
2023/09/23 08:40:53;;;;;;;14.35;8.25;;;14.40;99.90;;;;;;5035981;28;20055;-65
2023/09/23 08:43:36;;;;;;;11.98;7.57;;;14.50;99.90;;;;;;5032431;28;20777;-65
2023/09/23 08:46:11;;;;;;;12.15;7.30;;;14.60;99.90;;;;;;5039146;28;20121;-65
2023/09/23 08:48:38;;;;;;;13.90;6.65;;;14.70;99.90;;;;;;5066028;28;20472;-65
2023/09/23 08:51:07;;;;;;;10.45;6.85;;;14.80;99.90;;;;;;5056277;28;20843;-65
2023/09/23 08:53:34;;;;;;;11.32;6.00;;;14.90;99.90;;;;;;5041148;28;20261;-65
2023/09/23 08:56:00;;;;;;;11.98;6.07;;;15.00;99.90;;;;;;5056609;28;20143;-65
2023/09/23 08:58:26;;;;;;;12.63;5.70;;;15.00;99.90;;;;;;5049857;28;20051;-63
2023/09/23 09:00:53;;;;;;;10.13;5.90;;;15.10;99.90;;;;;;5052710;28;20048;-65
2023/09/23 09:03:18;;;;;;;11.40;5.40;;;15.20;99.90;;;;;;5039366;28;20453;-66
2023/09/23 09:05:46;;;;;;;8.05;4.70;;;15.30;99.90;;;;;;5062179;28;20051;-65
2023/09/23 09:08:12;;;;;;;11.52;4.85;;;15.40;99.90;;;;;;5047128;28;20087;-65
2023/09/23 09:10:40;;;;;;;10.40;4.63;;;15.40;99.90;;;;;;5054196;28;20045;-66
2023/09/23 09:13:06;;;;;;;7.45;3.22;;;15.40;99.90;;;;;;5050161;28;20063;-66
2023/09/23 09:15:36;;;;;;;9.88;4.30;;;15.40;99.90;;;;;;5032753;28;20055;-66
2023/09/23 09:18:02;;;;;;;6.75;2.95;;;15.50;99.90;;;;;;5059841;28;20048;-65
2023/09/23 09:20:28;;;;;;;6.72;3.03;;;15.50;99.90;;;;;;5047552;28;20374;-66
2023/09/23 09:22:54;;;;;;;10.77;3.47;;;15.60;99.90;;;;;;5076731;28;20080;-65
2023/09/23 09:25:20;;;;;;;10.50;3.80;;;15.70;99.90;;;;;;5050844;28;20197;-66
2023/09/23 09:27:47;;;;;;;7.85;3.42;;;15.80;99.90;;;;;;5048806;28;20057;-68
2023/09/23 09:30:13;;;;;;;7.53;3.25;;;15.80;99.90;;;;;;5046602;28;20056;-65
2023/09/23 09:32:44;;;;;;;7.13;3.10;;;15.80;99.90;;;;;;5049106;28;20040;-66
2023/09/23 09:35:17;;;;;;;9.18;3.40;;;15.90;99.90;;;;;;5029365;28;20511;-66
2023/09/23 09:37:48;;;;;;;8.18;3.08;;;15.90;99.90;;;;;;5043244;28;20061;-66
2023/09/23 09:40:17;;;;;;;9.68;3.47;;;16.10;99.90;;;;;;5049997;28;20061;-66
2023/09/23 09:42:54;;;;;;;8.63;3.28;;;16.00;99.90;;;;;;5077277;27;20051;-66
2023/09/23 09:45:21;;;;;;;10.35;3.38;;;16.10;99.90;;;;;;5072724;27;21277;-66
2023/09/23 09:47:50;;;;;;;5.97;2.67;;;16.10;99.90;;;;;;5043977;28;20056;-64
2023/09/23 09:50:16;;;;;;;5.60;2.60;;;16.10;99.90;;;;;;5041978;28;20063;-65
2023/09/23 09:52:44;;;;;;;9.15;3.05;;;16.10;99.90;;;;;;5076435;27;20056;-65
2023/09/23 09:55:15;;;;;;;8.13;3.20;;;16.20;99.90;;;;;;5053093;28;20043;-65
2023/09/23 09:57:41;;;;;;;8.32;2.80;;;16.20;99.90;;;;;;5055405;28;20060;-65
2023/09/23 10:00:27;;;;;;;7.85;2.42;;;16.20;99.90;;;;;;5051213;28;20152;-65
2023/09/23 10:02:58;;;;;;;12.60;2.72;;;16.20;99.90;;;;;;5080608;28;20425;-66
2023/09/23 10:05:31;;;;;;;;;;;16.20;99.90;;;;;;5074588;27;20048;-65
2023/09/23 10:07:57;;;;;;;8.13;2.30;;;16.10;99.90;;;;;;5048006;28;20012;-66
2023/09/23 10:10:34;;;;;;;7.82;1.90;;;16.10;99.90;;;;;;5070672;28;20041;-66
2023/09/23 10:13:29;;;;;;;8.00;2.58;;;16.10;99.90;;;;;;5050142;28;20053;-66
2023/09/23 10:16:05;;;;;;;9.27;2.80;;;16.00;99.90;;;;;;5046005;28;20048;-66
2023/09/23 10:18:37;;;;;;;5.60;2.67;;;16.00;99.90;;;;;;5028481;28;20044;-65
2023/09/23 10:21:04;;;;;;;8.27;2.53;;;15.90;99.90;;;;;;5044178;28;20102;-66
2023/09/23 10:23:36;;;;;;;9.85;2.50;;;15.90;99.90;;;;;;5034756;28;20040;-65
2023/09/23 10:26:18;;;;;;;9.30;2.33;;;15.90;99.90;;;;;;5041435;28;20801;-65
2023/09/23 10:29:03;;;;;;;6.00;2.50;;;16.00;99.90;;;;;;5040061;28;20494;-66
2023/09/23 10:31:31;;;;;;;9.38;2.92;;;16.00;99.90;;;;;;5025567;28;20135;-66
2023/09/23 10:33:57;;;;;;;9.82;2.83;;;16.00;99.90;;;;;;5030427;28;20106;-66
2023/09/23 10:36:23;;;;;;;7.70;3.05;;;16.10;99.90;;;;;;5050293;28;20041;-65
2023/09/23 10:38:50;;;;;;;8.23;3.40;;;16.10;99.90;;;;;;5049269;28;20449;-65
2023/09/23 10:41:15;;;;;;;8.52;3.50;;;16.20;99.90;;;;;;5043599;28;20083;-65
2023/09/23 10:43:41;;;;;;;14.95;3.83;;;16.20;99.90;;;;;;5050631;28;20457;-64
2023/09/23 10:46:07;;;;;;;14.02;4.00;;;16.20;99.90;;;;;;5056257;28;20059;-65
2023/09/23 10:48:34;;;;;;;10.38;3.78;;;16.20;99.90;;;;;;5051130;28;20053;-65
2023/09/23 10:51:01;;;;;;;11.63;3.53;;;16.10;99.90;;;;;;5049335;28;20390;-65
2023/09/23 10:53:30;;;;;;;8.75;3.38;;;16.00;99.90;;;;;;5047054;28;20450;-65
2023/09/23 10:56:01;;;;;;;6.63;2.88;;;16.00;99.90;;;;;;5035655;28;20679;-65
2023/09/23 10:58:29;;;;;;;7.35;2.60;;;16.00;99.90;;;;;;5051383;28;20044;-65
2023/09/23 11:00:57;;;;;;;10.80;2.40;;;16.10;99.90;;;;;;5060077;28;20080;-65
2023/09/23 11:03:23;;;;;;;6.60;2.70;;;16.00;99.90;;;;;;5051266;28;20602;-65
2023/09/23 11:05:49;;;;;;;5.30;2.17;;;16.00;99.90;;;;;;5037669;28;20060;-66
2023/09/23 11:08:18;;;;;;;5.63;2.20;;;16.00;99.90;;;;;;5047423;28;20102;-66
2023/09/23 11:10:45;;;;;;;8.88;2.78;;;16.10;99.90;;;;;;5046337;28;20052;-66
2023/09/23 11:13:13;;;;;;;5.60;2.47;;;16.10;99.90;;;;;;5030492;28;20598;-66
2023/09/23 11:15:43;;;;;;;7.80;2.60;;;16.10;99.90;;;;;;5043396;28;20063;-66
2023/09/23 11:18:16;;;;;;;6.10;1.85;;;16.10;99.90;;;;;;5046390;28;20045;-65
2023/09/23 11:20:45;;;;;;;5.13;2.15;;;16.10;99.90;;;;;;5041327;28;20049;-66
2023/09/23 11:23:12;;;;;;;9.93;3.20;;;16.10;99.90;;;;;;5029009;28;20056;-66
2023/09/23 11:25:46;;;;;;;4.63;2.30;;;16.10;99.90;;;;;;5035433;28;20153;-65
2023/09/23 11:28:18;;;;;;;6.45;2.67;;;16.10;99.90;;;;;;5024271;28;20132;-65
2023/09/23 11:30:44;;;;;;;8.60;2.50;;;16.10;99.90;;;;;;5033153;28;20603;-66
2023/09/23 11:33:14;;;;;;;4.45;1.40;;;16.10;99.90;;;;;;5062034;28;20045;-66
2023/09/23 11:35:40;;;;;;;3.92;1.00;;;16.10;99.90;;;;;;5019204;28;20770;-65
2023/09/23 11:38:06;;;;;;;6.05;1.20;;;16.10;99.90;;;;;;5036733;28;20080;-65
2023/09/23 11:40:32;;;;;;;6.55;1.10;;;16.00;99.90;;;;;;5031071;28;21005;-65
2023/09/23 11:42:59;;;;;;;5.15;1.13;;;15.90;99.90;;;;;;5017290;28;20052;-65
2023/09/23 11:45:24;;;;;;;4.43;1.50;;;15.80;99.90;;;;;;5013964;28;20048;-65
2023/09/23 11:47:51;;;;;;;5.32;1.35;;;15.80;99.90;;;;;;5022155;28;20041;-65
2023/09/23 11:50:17;;;;;;;4.53;1.20;;;15.70;99.90;;;;;;5034743;28;20084;-64
2023/09/23 11:52:43;;;;;;;5.72;1.40;;;15.70;99.90;;;;;;5034312;28;20673;-66
2023/09/23 11:55:10;;;;;;;5.30;1.40;;;15.70;99.90;;;;;;5020796;28;20044;-65
2023/09/23 11:57:36;;;;;;;4.32;1.20;;;15.70;99.90;;;;;;5020772;28;20033;-65
2023/09/23 12:00:04;;;;;;;3.05;1.20;;;15.70;99.90;;;;;;5062196;28;20159;-65
2023/09/23 12:02:30;;;;;;;4.13;1.00;;;15.60;99.90;;;;;;5028838;28;20127;-65
2023/09/23 12:04:56;;;;;;;2.72;0.95;;;15.60;99.90;;;;;;5021169;28;20133;-64
2023/09/23 12:07:23;;;;;;;2.47;0.80;;;15.60;99.90;;;;;;5031163;28;20083;-65
2023/09/23 12:09:49;;;;;;;2.35;1.00;;;15.50;99.90;;;;;;5033928;28;20055;-65
2023/09/23 12:12:15;;;;;;;2.13;0.60;;;15.50;99.90;;;;;;5019997;28;20056;-65
2023/09/23 12:14:42;;;;;;;1.27;0.60;;;15.50;99.90;;;;;;5058275;28;20894;-65
2023/09/23 12:17:14;;;;;;;1.05;0.50;;;15.40;99.90;;;;;;5039586;28;20068;-65
2023/09/23 12:19:46;;;;;;;1.35;0.50;;;15.40;99.90;;;;;;5046551;28;20915;-65
2023/09/23 12:22:12;;;;;;;2.13;0.70;;;15.40;99.90;;;;;;5048452;28;20619;-65
2023/09/23 12:24:49;;;;;;;2.55;0.70;;;15.40;99.90;;;;;;5048190;28;20045;-65
2023/09/23 12:27:15;;;;;;;3.55;0.98;;;15.50;99.90;;;;;;5075323;28;20048;-65
2023/09/23 12:29:41;;;;;;;3.88;1.13;;;15.50;99.90;;;;;;5037490;28;20049;-65
2023/09/23 12:32:07;;;;;;;1.40;0.70;;;15.60;99.90;;;;;;5049469;28;20056;-66
2023/09/23 12:34:33;;;;;;;2.47;0.90;;;15.70;99.90;;;;;;5036214;28;20049;-65
2023/09/23 12:36:59;;;;;;;3.28;0.80;;;15.70;99.90;;;;;;5044842;28;20052;-65
2023/09/23 12:39:24;;;;;;;5.15;1.25;;;15.80;99.90;;;;;;5033255;28;20048;-65
2023/09/23 12:41:51;;;;;;;3.22;0.90;;;15.90;99.90;;;;;;5029359;28;20151;-65
2023/09/23 12:44:18;;;;;;;3.63;0.80;;;15.90;99.90;;;;;;5034006;28;20135;-66